createdAt,value
2023-04-20T00:02:15.326Z,10.10
2023-04-20T00:04:45.432Z,10.07
2023-04-20T00:07:16.773Z,10.22
2023-04-20T00:09:43.532Z,10.23
2023-04-20T00:12:17.648Z,10.19
2023-04-20T00:14:44.680Z,10.14
2023-04-20T00:17:11.492Z,10.15
2023-04-20T00:19:40.993Z,9.55
2023-04-20T00:22:15.970Z,10.05
2023-04-20T00:24:42.756Z,9.77
2023-04-20T00:27:12.177Z,9.34
2023-04-20T00:29:38.949Z,9.60
2023-04-20T00:32:08.886Z,9.65
2023-04-20T00:34:37.843Z,9.93
2023-04-20T00:37:04.801Z,9.80
2023-04-20T00:39:36.229Z,9.87
2023-04-20T00:42:13.599Z,9.74
2023-04-20T00:44:45.133Z,9.47
2023-04-20T00:47:11.917Z,9.78
2023-04-20T00:49:38.963Z,9.87
2023-04-20T00:52:06.442Z,9.42
2023-04-20T00:54:33.480Z,9.43
2023-04-20T00:57:02.630Z,9.82
2023-04-20T00:59:29.592Z,9.38
2023-04-20T01:01:59.475Z,9.72
2023-04-20T01:04:26.892Z,9.72
2023-04-20T01:06:57.136Z,9.63
2023-04-20T01:09:26.370Z,9.76
2023-04-20T01:11:53.080Z,9.74
2023-04-20T01:14:25.099Z,9.12
2023-04-20T01:16:58.430Z,9.65
2023-04-20T01:19:25.327Z,9.57
2023-04-20T01:21:52.136Z,9.66
2023-04-20T01:24:19.007Z,9.69
2023-04-20T01:26:45.759Z,9.64
2023-04-20T01:29:13.346Z,9.53
2023-04-20T01:31:42.529Z,8.53
2023-04-20T01:34:10.159Z,9.58
2023-04-20T01:36:36.882Z,9.23
2023-04-20T01:39:03.695Z,8.99
2023-04-20T01:41:32.941Z,9.68
2023-04-20T01:44:02.709Z,9.64
2023-04-20T01:46:30.997Z,9.46
2023-04-20T01:48:57.749Z,9.36
2023-04-20T01:51:24.456Z,9.58
2023-04-20T01:53:51.251Z,9.54
2023-04-20T01:56:18.094Z,9.52
2023-04-20T01:58:44.991Z,9.54
2023-04-20T02:01:12.161Z,9.22
2023-04-20T02:03:41.698Z,9.43
2023-04-20T02:06:11.079Z,9.49
2023-04-20T02:08:48.001Z,9.26
2023-04-20T02:11:14.916Z,9.04
2023-04-20T02:13:41.659Z,9.43
2023-04-20T02:16:08.588Z,8.85
2023-04-20T02:18:45.874Z,9.38
2023-04-20T02:21:14.788Z,9.19
2023-04-20T02:23:44.382Z,9.41
2023-04-20T02:26:17.959Z,9.39
2023-04-20T02:28:44.901Z,9.24
2023-04-20T02:31:12.088Z,9.03
2023-04-20T02:33:39.006Z,8.99
2023-04-20T02:36:05.920Z,8.83
2023-04-20T02:38:36.170Z,8.85
2023-04-20T02:41:03.096Z,9.19
2023-04-20T02:43:29.927Z,9.17
2023-04-20T02:45:59.986Z,9.14
2023-04-20T02:48:26.757Z,9.08
2023-04-20T02:50:57.868Z,8.90
2023-04-20T02:53:28.067Z,8.96
2023-04-20T02:56:10.234Z,9.05
2023-04-20T02:58:48.284Z,8.83
2023-04-20T03:01:26.457Z,8.35
2023-04-20T03:04:01.648Z,8.94
2023-04-20T03:06:30.244Z,8.93
2023-04-20T03:09:01.449Z,8.92
2023-04-20T03:11:50.685Z,8.98
2023-04-20T03:14:32.117Z,9.04
2023-04-20T03:16:58.971Z,8.70
2023-04-20T03:19:28.672Z,9.01
2023-04-20T03:21:55.752Z,8.91
2023-04-20T03:24:23.995Z,8.33
2023-04-20T03:26:50.887Z,8.88
2023-04-20T03:29:21.032Z,9.00
2023-04-20T03:31:48.024Z,9.00
2023-04-20T03:34:15.009Z,8.70
2023-04-20T03:36:44.271Z,8.93
2023-04-20T03:39:11.459Z,8.60
2023-04-20T03:41:40.410Z,9.04
2023-04-20T03:44:09.513Z,8.81
2023-04-20T03:46:37.240Z,8.92
2023-04-20T03:49:06.843Z,9.09
2023-04-20T03:51:35.018Z,8.38
2023-04-20T03:54:01.885Z,8.96
2023-04-20T03:56:28.953Z,9.02
2023-04-20T03:58:55.936Z,9.13
2023-04-20T04:01:25.799Z,9.00
2023-04-20T04:03:52.819Z,9.14
2023-04-20T04:06:23.001Z,9.09
2023-04-20T04:08:53.834Z,8.94
2023-04-20T04:11:20.901Z,9.05
2023-04-20T04:13:47.665Z,9.06
2023-04-20T04:16:14.592Z,8.77
2023-04-20T04:18:44.751Z,8.06
2023-04-20T04:21:11.794Z,8.24
2023-04-20T04:23:44.846Z,9.30
2023-04-20T04:26:25.069Z,9.36
2023-04-20T04:28:52.880Z,9.38
2023-04-20T04:31:21.707Z,9.48
2023-04-20T04:33:49.656Z,9.19
2023-04-20T04:36:30.252Z,9.16
2023-04-20T04:38:59.215Z,8.22
2023-04-20T04:41:32.131Z,9.38
2023-04-20T04:44:15.628Z,9.66
2023-04-20T04:46:43.342Z,9.71
2023-04-20T04:49:10.556Z,9.29
2023-04-20T04:51:40.890Z,9.59
2023-04-20T04:54:10.445Z,9.79
2023-04-20T04:56:43.816Z,9.96
2023-04-20T04:59:15.731Z,9.52
2023-04-20T05:01:50.255Z,10.08
2023-04-20T05:04:20.401Z,9.45
2023-04-20T05:06:49.572Z,10.21
2023-04-20T05:09:51.091Z,10.32
2023-04-20T05:12:26.706Z,9.67
2023-04-20T05:14:57.678Z,10.40
2023-04-20T05:17:33.392Z,10.48
2023-04-20T05:20:06.201Z,10.52
2023-04-20T05:22:36.561Z,10.36
2023-04-20T05:25:06.212Z,10.52
2023-04-20T05:27:45.097Z,10.24
2023-04-20T05:30:21.860Z,10.82
2023-04-20T05:32:52.542Z,10.74
2023-04-20T05:35:20.541Z,10.78
2023-04-20T05:37:47.893Z,10.97
2023-04-20T05:40:18.095Z,10.86
2023-04-20T05:42:44.870Z,11.23
2023-04-20T05:45:19.876Z,11.30
2023-04-20T05:47:56.910Z,10.50
2023-04-20T05:50:26.987Z,11.26
2023-04-20T05:52:54.164Z,11.52
2023-04-20T05:55:26.278Z,11.57
2023-04-20T05:57:53.079Z,11.42
2023-04-20T06:00:21.383Z,11.60
2023-04-20T06:02:48.907Z,11.63
2023-04-20T06:05:16.312Z,11.70
2023-04-20T06:07:46.056Z,11.75
2023-04-20T06:10:13.112Z,11.54
2023-04-20T06:12:39.973Z,11.60
2023-04-20T06:15:09.881Z,12.01
2023-04-20T06:17:47.492Z,12.15
2023-04-20T06:20:14.331Z,11.85
2023-04-20T06:22:45.159Z,12.15
2023-04-20T06:25:12.307Z,10.88
2023-04-20T06:27:39.751Z,12.42
2023-04-20T06:30:09.390Z,12.55
2023-04-20T06:32:36.414Z,12.65
2023-04-20T06:35:04.255Z,12.77
2023-04-20T06:37:31.577Z,12.84
2023-04-20T06:40:02.829Z,13.11
2023-04-20T06:42:29.710Z,13.18
2023-04-20T06:45:02.013Z,12.96
2023-04-20T06:47:33.902Z,13.13
2023-04-20T06:50:09.148Z,13.27
2023-04-20T06:52:42.841Z,13.41
2023-04-20T06:55:10.100Z,13.46
2023-04-20T06:57:40.049Z,12.76
2023-04-20T07:00:10.819Z,13.63
2023-04-20T07:02:45.618Z,13.81
2023-04-20T07:05:13.028Z,13.80
2023-04-20T07:07:39.934Z,13.63
2023-04-20T07:10:11.843Z,13.94
2023-04-20T07:12:41.594Z,14.35
2023-04-20T07:15:10.093Z,14.08
2023-04-20T07:17:36.816Z,14.43
2023-04-20T07:20:10.162Z,14.64
2023-04-20T07:22:42.095Z,14.68
2023-04-20T07:25:10.326Z,14.88
2023-04-20T07:27:39.391Z,15.04
2023-04-20T07:30:08.856Z,15.01
2023-04-20T07:32:39.556Z,15.17
2023-04-20T07:35:08.293Z,15.23
2023-04-20T07:37:35.183Z,15.23
2023-04-20T07:40:06.042Z,15.21
2023-04-20T07:42:34.606Z,15.19
2023-04-20T07:45:06.767Z,15.45
2023-04-20T07:47:36.297Z,15.46
2023-04-20T07:50:05.091Z,15.78
2023-04-20T07:52:31.977Z,15.90
2023-04-20T07:54:59.314Z,15.68
2023-04-20T07:57:27.138Z,15.78
2023-04-20T07:59:53.858Z,15.88
2023-04-20T08:02:21.031Z,16.05
2023-04-20T08:04:49.221Z,15.82
2023-04-20T08:07:21.462Z,16.26
2023-04-20T08:09:53.690Z,16.31
2023-04-20T08:12:23.881Z,16.50
2023-04-20T08:14:51.841Z,15.85
2023-04-20T08:17:18.693Z,16.74
2023-04-20T08:19:47.697Z,16.86
2023-04-20T08:22:16.894Z,16.98
2023-04-20T08:24:46.486Z,17.22
2023-04-20T08:27:16.600Z,16.53
2023-04-20T08:29:47.492Z,17.32
2023-04-20T08:32:14.235Z,17.22
2023-04-20T08:34:42.357Z,17.52
2023-04-20T08:37:11.793Z,17.52
2023-04-20T08:39:41.305Z,17.74
2023-04-20T08:42:09.422Z,17.78
2023-04-20T08:44:36.535Z,17.99
2023-04-20T08:47:04.128Z,18.17
2023-04-20T08:49:36.918Z,18.31
2023-04-20T08:52:03.765Z,17.87
2023-04-20T08:54:30.615Z,18.41
2023-04-20T08:57:00.163Z,18.63
2023-04-20T08:59:27.628Z,18.77
2023-04-20T09:01:57.408Z,18.78
2023-04-20T09:04:26.844Z,18.92
2023-04-20T09:07:00.467Z,18.99
2023-04-20T09:09:27.383Z,19.16
2023-04-20T09:12:16.537Z,19.57
2023-04-20T09:14:47.756Z,19.48
2023-04-20T09:17:17.887Z,19.59
2023-04-20T09:19:46.198Z,20.11
2023-04-20T09:22:15.429Z,20.17
2023-04-20T09:24:42.737Z,20.22
2023-04-20T09:27:16.768Z,20.18
2023-04-20T09:29:57.356Z,20.37
2023-04-20T09:32:29.855Z,20.50
2023-04-20T09:34:57.107Z,20.50
2023-04-20T09:37:24.110Z,20.85
2023-04-20T09:39:51.855Z,20.93
2023-04-20T09:42:18.645Z,20.41
2023-04-20T09:44:52.233Z,21.11
2023-04-20T09:47:22.452Z,21.41
2023-04-20T09:49:52.758Z,21.67
2023-04-20T09:52:19.595Z,21.51
2023-04-20T09:54:48.842Z,22.13
2023-04-20T09:57:15.644Z,22.53
2023-04-20T09:59:44.028Z,22.35
2023-04-20T10:02:16.127Z,22.46
2023-04-20T10:04:59.229Z,22.59
2023-04-20T10:07:34.732Z,23.14
2023-04-20T10:10:18.937Z,23.04
2023-04-20T10:12:56.316Z,23.17
2023-04-20T10:15:24.423Z,23.19
2023-04-20T10:17:51.475Z,23.34
2023-04-20T10:20:29.035Z,23.87
2023-04-20T10:23:08.780Z,23.77
2023-04-20T10:25:36.120Z,23.49
2023-04-20T10:28:09.760Z,23.97
2023-04-20T10:30:38.063Z,24.01
2023-04-20T10:33:12.779Z,23.29
2023-04-20T10:35:45.724Z,23.45
2023-04-20T10:38:15.004Z,22.84
2023-04-20T10:40:44.044Z,22.63
2023-04-20T10:43:22.990Z,23.06
2023-04-20T10:45:50.654Z,23.73
2023-04-20T10:48:18.342Z,23.83
2023-04-20T10:50:50.324Z,24.13
2023-04-20T10:53:17.614Z,24.85
2023-04-20T10:55:47.376Z,25.02
2023-04-20T10:58:24.260Z,24.99
2023-04-20T11:01:01.088Z,25.88
2023-04-20T11:03:29.519Z,26.21
2023-04-20T11:06:01.089Z,26.09
2023-04-20T11:08:44.195Z,26.27
2023-04-20T11:15:39.847Z,26.52
2023-04-20T11:18:14.082Z,26.96
2023-04-20T11:20:54.469Z,26.32
2023-04-20T11:23:27.403Z,26.94
2023-04-20T11:25:58.490Z,27.87
2023-04-20T11:28:30.429Z,28.23
2023-04-20T11:30:57.313Z,28.52
2023-04-20T11:33:28.314Z,28.94
2023-04-20T11:36:01.854Z,28.84
2023-04-20T11:38:31.898Z,29.00
2023-04-20T11:41:04.662Z,28.15
2023-04-20T11:43:32.385Z,28.76
2023-04-20T11:46:15.844Z,28.67
2023-04-20T11:48:46.823Z,27.24
2023-04-20T11:51:16.278Z,25.63
2023-04-20T11:53:45.265Z,25.08
2023-04-20T11:56:12.026Z,26.11
2023-04-20T11:58:38.877Z,29.09
2023-04-20T12:01:05.895Z,32.49
2023-04-20T12:03:35.121Z,34.31
2023-04-20T12:06:02.668Z,34.16
2023-04-20T12:08:29.791Z,35.99
2023-04-20T12:10:58.572Z,33.19
2023-04-20T12:13:25.810Z,35.57
2023-04-20T12:15:52.810Z,34.86
2023-04-20T12:18:19.876Z,36.01
2023-04-20T12:20:47.255Z,34.18
2023-04-20T12:23:14.406Z,30.30
2023-04-20T12:25:47.334Z,27.81
2023-04-20T12:28:14.560Z,27.07
2023-04-20T12:30:44.102Z,31.40
2023-04-20T12:33:13.371Z,33.43
2023-04-20T12:35:44.642Z,34.69
2023-04-20T12:38:13.314Z,36.30
2023-04-20T12:40:41.303Z,37.85
2023-04-20T12:43:08.366Z,35.70
2023-04-20T12:45:35.223Z,31.94
2023-04-20T12:48:05.245Z,29.20
2023-04-20T12:50:32.190Z,28.35
2023-04-20T12:53:00.164Z,26.95
2023-04-20T12:55:32.104Z,25.75
2023-04-20T12:58:01.514Z,24.07
2023-04-20T13:00:28.291Z,23.30
2023-04-20T13:02:55.293Z,22.78
2023-04-20T13:05:23.973Z,24.69
2023-04-20T13:07:53.108Z,27.58
2023-04-20T13:10:19.870Z,29.45
2023-04-20T13:12:52.849Z,31.42
2023-04-20T13:15:31.804Z,32.71
2023-04-20T13:18:03.532Z,35.53
2023-04-20T13:20:30.756Z,35.88
2023-04-20T13:23:01.560Z,36.34
2023-04-20T13:25:32.864Z,35.14
2023-04-20T13:28:01.802Z,36.91
2023-04-20T13:30:30.979Z,34.41
2023-04-20T13:32:57.871Z,35.70
2023-04-20T13:35:27.069Z,35.81
2023-04-20T13:37:53.883Z,33.28
2023-04-20T13:40:20.991Z,31.65
2023-04-20T13:42:49.219Z,30.77
2023-04-20T13:45:15.941Z,30.18
2023-04-20T13:47:45.749Z,30.44
2023-04-20T13:50:14.684Z,30.27
2023-04-20T13:52:53.738Z,29.80
2023-04-20T13:55:24.993Z,28.37
2023-04-20T13:57:53.335Z,26.56
2023-04-20T14:00:20.661Z,26.97
2023-04-20T14:02:55.371Z,28.78
2023-04-20T14:05:25.046Z,30.09
2023-04-20T14:07:52.128Z,30.65
2023-04-20T14:10:18.885Z,28.85
2023-04-20T14:12:52.965Z,28.61
2023-04-20T14:15:22.348Z,31.25
2023-04-20T14:17:51.680Z,31.40
2023-04-20T14:20:19.521Z,30.72
2023-04-20T14:22:46.398Z,29.76
2023-04-20T14:25:19.771Z,30.39
2023-04-20T14:27:49.742Z,31.17
2023-04-20T14:30:50.843Z,31.19
2023-04-20T14:33:49.771Z,31.14
2023-04-20T14:36:16.601Z,31.07
2023-04-20T14:38:46.498Z,31.15
2023-04-20T14:41:16.869Z,30.92
2023-04-20T14:43:43.749Z,30.34
2023-04-20T14:46:13.307Z,28.52
2023-04-20T14:48:41.352Z,27.87
2023-04-20T14:51:08.144Z,27.85
2023-04-20T14:53:35.448Z,27.93
2023-04-20T14:56:04.965Z,27.19
2023-04-20T14:58:33.998Z,26.39
2023-04-20T15:01:06.795Z,25.82
2023-04-20T15:03:37.109Z,26.65
2023-04-20T15:06:05.646Z,25.71
2023-04-20T15:08:33.679Z,25.00
2023-04-20T15:11:09.530Z,24.20
2023-04-20T15:13:41.002Z,23.16
2023-04-20T15:16:11.084Z,23.33
2023-04-20T15:18:38.161Z,22.71
2023-04-20T15:21:07.474Z,22.47
2023-04-20T15:23:34.702Z,24.26
2023-04-20T15:26:03.768Z,24.76
2023-04-20T15:28:30.573Z,25.19
2023-04-20T15:30:59.600Z,25.11
2023-04-20T15:33:27.540Z,24.34
2023-04-20T15:35:58.507Z,24.56
2023-04-20T15:38:25.401Z,24.13
2023-04-20T15:40:57.558Z,24.48
2023-04-20T15:43:27.049Z,23.50
2023-04-20T15:45:59.320Z,22.79
2023-04-20T15:48:29.137Z,22.53
2023-04-20T15:50:57.484Z,21.87
2023-04-20T15:53:25.243Z,21.41
2023-04-20T15:55:54.753Z,20.91
2023-04-20T15:58:23.920Z,20.42
2023-04-20T16:00:53.888Z,19.83
2023-04-20T16:03:25.677Z,19.27
2023-04-20T16:05:54.868Z,19.30
2023-04-20T16:08:36.752Z,19.25
2023-04-20T16:11:11.404Z,19.02
2023-04-20T16:13:41.066Z,18.87
2023-04-20T16:16:15.343Z,18.84
2023-04-20T16:18:42.390Z,18.76
2023-04-20T16:21:11.470Z,18.35
2023-04-20T16:23:38.424Z,18.64
2023-04-20T16:26:05.316Z,18.15
2023-04-20T16:28:35.354Z,17.19
2023-04-20T16:31:02.256Z,18.14
2023-04-20T16:33:35.042Z,17.93
2023-04-20T16:36:09.922Z,18.03
2023-04-20T16:38:36.927Z,16.85
2023-04-20T16:41:10.634Z,17.54
2023-04-20T16:43:41.153Z,17.34
2023-04-20T16:46:25.194Z,17.11
2023-04-20T16:48:54.569Z,16.89
2023-04-20T16:51:25.472Z,16.49
2023-04-20T16:53:54.012Z,16.50
2023-04-20T16:56:22.823Z,16.67
2023-04-20T16:58:55.327Z,15.80
2023-04-20T17:01:36.229Z,16.22
2023-04-20T17:04:03.602Z,15.65
2023-04-20T17:06:34.354Z,16.04
2023-04-20T17:09:14.018Z,15.87
2023-04-20T17:11:40.982Z,15.93
2023-04-20T17:14:12.982Z,15.88
2023-04-20T17:16:42.291Z,15.82
2023-04-20T17:19:09.239Z,14.67
2023-04-20T17:21:36.139Z,15.63
2023-04-20T17:24:07.423Z,15.48
2023-04-20T17:26:38.502Z,15.20
2023-04-20T17:29:08.346Z,15.03
2023-04-20T17:31:46.009Z,14.07
2023-04-20T17:34:30.941Z,14.47
2023-04-20T17:36:59.565Z,14.98
2023-04-20T17:39:38.403Z,14.95
2023-04-20T17:42:22.838Z,14.86
2023-04-20T17:44:49.790Z,14.64
2023-04-20T17:48:10.435Z,14.66
2023-04-20T17:50:53.385Z,14.56
2023-04-20T17:53:20.848Z,14.56
2023-04-20T17:55:50.750Z,14.49
2023-04-20T17:58:17.864Z,14.44
2023-04-20T18:00:50.522Z,14.21
2023-04-20T18:03:20.058Z,14.08
2023-04-20T18:05:47.229Z,14.20
2023-04-20T18:08:20.643Z,13.87
2023-04-20T18:10:50.557Z,14.19
2023-04-20T18:13:20.514Z,13.96
2023-04-20T18:15:50.447Z,13.88
2023-04-20T18:18:19.649Z,13.90
2023-04-20T18:20:46.645Z,13.94
2023-04-20T18:23:15.923Z,13.67
2023-04-20T18:25:43.095Z,13.92
2023-04-20T18:28:10.981Z,13.90
2023-04-20T18:30:44.569Z,13.86
2023-04-20T18:33:17.520Z,13.82
2023-04-20T18:35:48.290Z,13.75
2023-04-20T18:38:24.805Z,13.54
2023-04-20T18:40:52.008Z,13.29
2023-04-20T18:43:19.405Z,13.42
2023-04-20T18:45:54.639Z,13.46
2023-04-20T18:48:27.627Z,12.46
2023-04-20T18:51:01.081Z,13.25
2023-04-20T18:53:34.885Z,13.07
2023-04-20T18:56:05.274Z,13.34
2023-04-20T18:58:47.252Z,13.36
2023-04-20T19:01:24.064Z,12.94
2023-04-20T19:03:59.754Z,13.24
2023-04-20T19:06:31.078Z,13.19
2023-04-20T19:09:32.225Z,13.19
2023-04-20T19:12:02.400Z,13.17
2023-04-20T19:14:49.247Z,13.14
2023-04-20T19:17:21.836Z,13.02
2023-04-20T19:19:53.097Z,12.84
2023-04-20T19:22:22.309Z,12.92
2023-04-20T19:25:14.664Z,12.79
2023-04-20T19:27:46.658Z,12.94
2023-04-20T19:30:19.201Z,12.87
2023-04-20T19:32:47.087Z,12.97
2023-04-20T19:35:22.513Z,12.09
2023-04-20T19:37:55.456Z,12.92
2023-04-20T19:40:26.983Z,12.73
2023-04-20T19:43:01.699Z,12.65
2023-04-20T19:45:31.029Z,12.51
2023-04-20T19:48:08.161Z,12.76
2023-04-20T19:50:39.777Z,12.60
2023-04-20T19:53:15.102Z,12.60
2023-04-20T19:55:53.193Z,12.38
2023-04-20T19:58:25.673Z,12.49
2023-04-20T20:00:52.523Z,12.57
2023-04-20T20:03:19.506Z,11.77
2023-04-20T20:05:47.577Z,11.97
2023-04-20T20:08:14.614Z,12.21
2023-04-20T20:10:54.648Z,12.33
2023-04-20T20:13:29.784Z,12.42
2023-04-20T20:16:05.869Z,11.50
2023-04-20T20:18:41.872Z,12.17
2023-04-20T20:21:13.073Z,11.75
2023-04-20T20:23:43.932Z,12.20
2023-04-20T20:30:41.412Z,12.15
2023-04-20T20:33:08.381Z,10.89
2023-04-20T20:35:38.791Z,11.75
2023-04-20T20:38:08.808Z,11.99
2023-04-20T20:40:38.269Z,11.69
2023-04-20T20:43:15.182Z,11.71
2023-04-20T20:45:47.833Z,11.92
2023-04-20T20:48:16.896Z,11.38
2023-04-20T20:50:44.274Z,11.83
2023-04-20T20:53:20.427Z,11.24
2023-04-20T20:55:49.451Z,11.78
2023-04-20T20:58:19.017Z,11.75
2023-04-20T21:01:00.215Z,11.50
2023-04-20T21:03:33.253Z,11.07
2023-04-20T21:06:02.590Z,11.71
2023-04-20T21:08:35.546Z,11.55
2023-04-20T21:11:03.904Z,11.41
2023-04-20T21:13:33.563Z,11.39
2023-04-20T21:16:00.404Z,11.37
2023-04-20T21:18:27.310Z,11.59
2023-04-20T21:20:56.857Z,11.05
2023-04-20T21:23:23.661Z,11.53
2023-04-20T21:26:02.207Z,11.22
2023-04-20T21:28:37.741Z,11.42
2023-04-20T21:31:05.112Z,11.41
2023-04-20T21:33:38.412Z,11.38
2023-04-20T21:36:09.814Z,11.37
2023-04-20T21:38:44.401Z,10.87
2023-04-20T21:41:16.128Z,11.32
2023-04-20T21:43:48.500Z,10.69
2023-04-20T21:46:17.848Z,11.22
2023-04-20T21:48:44.660Z,11.00
2023-04-20T21:51:23.421Z,11.15
2023-04-20T21:53:52.782Z,11.09
2023-04-20T21:56:24.578Z,10.76
2023-04-20T21:58:51.686Z,10.46
2023-04-20T22:01:20.256Z,11.10
2023-04-20T22:03:53.329Z,10.96
2023-04-20T22:06:22.811Z,10.82
2023-04-20T22:08:55.314Z,10.81
2023-04-20T22:11:27.462Z,10.95
2023-04-20T22:13:54.319Z,10.91
2023-04-20T22:16:24.407Z,10.93
2023-04-20T22:18:56.217Z,11.01
2023-04-20T22:21:30.318Z,10.97
2023-04-20T22:23:57.726Z,10.96
2023-04-20T22:26:24.512Z,10.98
2023-04-20T22:28:53.747Z,10.92
2023-04-20T22:31:20.545Z,10.67
2023-04-20T22:33:47.459Z,10.14
2023-04-20T22:36:17.136Z,10.55
2023-04-20T22:38:52.035Z,10.54
2023-04-20T22:41:24.751Z,10.76
2023-04-20T22:43:51.476Z,10.70
2023-04-20T22:46:18.381Z,10.61
2023-04-20T22:48:48.265Z,10.36
2023-04-20T22:51:17.230Z,10.41
2023-04-20T22:53:44.777Z,10.02
2023-04-20T22:56:11.634Z,10.61
2023-04-20T22:58:41.803Z,9.61
2023-04-20T23:01:10.621Z,10.56
2023-04-20T23:03:40.567Z,10.52
2023-04-20T23:06:12.647Z,10.51
2023-04-20T23:08:42.189Z,10.52
2023-04-20T23:11:09.295Z,10.50
2023-04-20T23:13:37.095Z,10.30
2023-04-20T23:16:06.386Z,10.35
2023-04-20T23:18:34.376Z,10.35
2023-04-20T23:21:01.099Z,10.18
2023-04-20T23:23:27.842Z,10.23
2023-04-20T23:25:54.540Z,10.08
2023-04-20T23:28:21.225Z,10.12
2023-04-20T23:30:48.200Z,9.82
2023-04-20T23:33:14.993Z,10.17
2023-04-20T23:35:42.026Z,9.88
2023-04-20T23:38:11.435Z,9.90
2023-04-20T23:40:39.112Z,10.14
2023-04-20T23:43:05.896Z,9.87
2023-04-20T23:45:32.784Z,9.25
2023-04-20T23:47:59.581Z,10.02
2023-04-20T23:50:26.410Z,8.77
2023-04-20T23:52:53.222Z,9.40
2023-04-20T23:55:20.115Z,9.87
2023-04-20T23:57:49.993Z,9.71
